This is the latest recevied weather packets stored in our database for station/object K1ABC. If no packets are shown the sender has not sent any weather packets the latest 10 day(s).
| Time | Temp. | Humidity | Pressure | Rain* | Wind** | Luminosity | Snow |
|---|---|---|---|---|---|---|---|
| 1777717849 | 7.78° C | 75% | 1011.5 hPa | 0 mm | - | - | - |
| 1777717646 | 7.78° C | 75% | 1011.6 hPa | 0 mm | - | - | - |
| 1777716692 | 7.78° C | 74% | 1011.2 hPa | 0 mm | - | - | - |
| 1777716121 | 7.78° C | 73% | 1010.9 hPa | 0 mm | - | - | - |
| 1777715794 | 7.78° C | 73% | 1011.1 hPa | 0 mm | - | - | - |
| 1777714967 | 8.33° C | 70% | 1011.3 hPa | 0 mm | - | - | - |
| 1777714271 | 8.33° C | 70% | 1011.2 hPa | 0 mm | - | - | - |
| 1777712586 | 7.78° C | 69% | 1010.5 hPa | 0 mm | - | - | - |
| 1777712258 | 7.78° C | 70% | 1010.5 hPa | 0 mm | - | - | - |
| 1777708703 | 7.22° C | 73% | 1011.2 hPa | 0 mm | - | - | - |
| 1777707888 | 7.22° C | 73% | 1011.4 hPa | 0 mm | - | - | - |
| 1777707193 | 7.22° C | 73% | 1011.5 hPa | 0 mm | - | - | - |
| 1777706623 | 7.22° C | 73% | 1011.5 hPa | 0 mm | - | - | - |
| 1777706059 | 7.22° C | 71% | 1011.5 hPa | 0 mm | - | - | - |
| 1777705862 | 7.22° C | 71% | 1011.5 hPa | 0 mm | - | - | - |
| 1777705167 | 6.67° C | 71% | 1011.5 hPa | 0 mm | - | - | - |
| 1777704599 | 6.67° C | 71% | 1011.5 hPa | 0 mm | - | - | - |
| 1777702907 | 8.89° C | 65% | 1011.5 hPa | 0 mm | - | - | - |
| 1777702586 | 8.89° C | 66% | 1011.6 hPa | 0 mm | - | - | - |
| 1777700548 | 8.33° C | 65% | 1011.7 hPa | 0 mm | - | - | - |
| 1777698991 | 8.89° C | 59% | 1011.8 hPa | 0 mm | - | - | - |
| 1777697045 | 9.44° C | 57% | 1011.7 hPa | 0 mm | - | - | - |
| 1777696713 | 8.89° C | 56% | 1011.7 hPa | 0 mm | - | - | - |
| 1777696017 | 8.89° C | 54% | 1011.7 hPa | 0 mm | - | - | - |
| 1777695813 | 8.89° C | 55% | 1011.6 hPa | 0 mm | - | - | - |
* Rain latest hour (hover to see other rain measurements)
** Current wind speed in m/s (hover to see current wind gust speed)